Hebron, New York
Current Conditions -  °F | °C
As of 1:53 PM on Thursday 23 Oct 2014 (Local Time) from KGFL Reporting Station
Overcast Overcast  
Wind Chill: 41°   Ceiling: 2000
Heat Index: 48°   Visibility: 10mi
Dew Point: 43°   Wind: 18mph
Humidity: 83%   Direction: 350°N
Pressure: 29.83"   Gusts: 25mph
Location:  43.3389°N, 73.3194°W
Report Text: KGFL 231753Z AUTO 35016G22KT 10SM BKN020 BKN026 OVC031 09/06 A2983 RMK AO2 RAE44 SLP105 P0001 60040 T00890061 10089 20078 58017
Loading
Personal Weather Stations






























Interactive Weather Map
Tropical Storm Tracking
New forecast layout! Learn more

10-Day Weather Forecast

Advertisements
Track Severe Weather on mobile